Wetterdaten: Woche 04.09.17 - 10.09.17 (KW36)
Datum Zeit Temperatur Luftfeuchte Luftdruck Niederschlag Windrichtung Sonnenschein Solar Wind
04.09.2017 00:00 8,3 C 97 % 1014,2 hPa 0,0 l/m N 0,00 h 0 W/m 0,0 km/h (0 Bft)
04.09.2017 01:00 8,2 C 98 % 1014,0 hPa 0,0 l/m N 0,00 h 0 W/m 0,0 km/h (0 Bft)
04.09.2017 02:00 7,9 C 98 % 1013,9 hPa 0,0 l/m N 0,00 h 0 W/m 0,4 km/h (0 Bft)
04.09.2017 03:00 7,9 C 98 % 1013,9 hPa 0,0 l/m NW 0,00 h 0 W/m 1,9 km/h (1 Bft)
04.09.2017 04:00 7,2 C 98 % 1013,9 hPa 0,0 l/m N 0,00 h 0 W/m 0,0 km/h (0 Bft)
04.09.2017 05:00 6,4 C 98 % 1013,8 hPa 0,0 l/m N 0,00 h 0 W/m 0,0 km/h (0 Bft)
04.09.2017 06:00 5,7 C 98 % 1014,1 hPa 0,0 l/m N 0,08 h 10 W/m 0,0 km/h (0 Bft)
04.09.2017 07:00 6,1 C 98 % 1014,5 hPa 0,0 l/m N 0,92 h 77 W/m 0,0 km/h (0 Bft)
04.09.2017 08:00 7,6 C 98 % 1014,8 hPa 0,0 l/m N 0,83 h 203 W/m 0,0 km/h (0 Bft)
04.09.2017 09:00 10,4 C 94 % 1015,3 hPa 0,0 l/m N 1,00 h 419 W/m 0,0 km/h (0 Bft)
04.09.2017 10:00 13,2 C 85 % 1015,4 hPa 0,0 l/m N 0,92 h 467 W/m 1,1 km/h (0 Bft)
04.09.2017 11:00 15,0 C 78 % 1015,8 hPa 0,0 l/m NW 1,00 h 672 W/m 3,7 km/h (1 Bft)
04.09.2017 12:00 17,1 C 71 % 1016,0 hPa 0,0 l/m NW 1,00 h 778 W/m 3,7 km/h (1 Bft)
04.09.2017 13:00 18,1 C 64 % 1016,1 hPa 0,0 l/m N-NW 0,75 h 526 W/m 6,3 km/h (2 Bft)
04.09.2017 14:00 18,5 C 59 % 1016,1 hPa 0,0 l/m W-NW 0,67 h 440 W/m 6,4 km/h (2 Bft)
04.09.2017 15:00 18,5 C 60 % 1016,2 hPa 0,0 l/m W-NW 0,17 h 285 W/m 3,1 km/h (1 Bft)
04.09.2017 16:00 17,9 C 65 % 1016,2 hPa 0,0 l/m W-NW 0,08 h 214 W/m 5,5 km/h (1 Bft)
04.09.2017 17:00 17,7 C 65 % 1016,5 hPa 0,0 l/m W-NW 0,00 h 145 W/m 2,9 km/h (1 Bft)
04.09.2017 18:00 16,5 C 75 % 1016,8 hPa 0,0 l/m N 0,00 h 55 W/m 0,7 km/h (0 Bft)
04.09.2017 19:00 15,2 C 84 % 1017,1 hPa 0,0 l/m W-NW 0,00 h 20 W/m 0,4 km/h (0 Bft)
04.09.2017 20:00 14,5 C 86 % 1017,8 hPa 0,0 l/m W-NW 0,00 h 0 W/m 2,7 km/h (1 Bft)
04.09.2017 21:00 14,0 C 93 % 1018,6 hPa 0,0 l/m N 0,00 h 0 W/m 0,1 km/h (0 Bft)
04.09.2017 22:00 13,7 C 94 % 1019,0 hPa 0,0 l/m N 0,00 h 0 W/m 0,0 km/h (0 Bft)
04.09.2017 23:00 13,6 C 94 % 1019,3 hPa 0,4 l/m W-NW 0,00 h 0 W/m 2,5 km/h (1 Bft)
05.09.2017 00:00 13,2 C 96 % 1019,3 hPa 0,0 l/m W-NW 0,00 h 0 W/m 1,3 km/h (1 Bft)
05.09.2017 01:00 13,2 C 97 % 1019,4 hPa 0,0 l/m W-SW 0,00 h 0 W/m 11,0 km/h (2 Bft)
05.09.2017 02:00 12,9 C 97 % 1019,6 hPa 0,4 l/m SW 0,00 h 0 W/m 7,0 km/h (2 Bft)
05.09.2017 03:00 12,7 C 97 % 1019,4 hPa 0,4 l/m SW 0,00 h 0 W/m 1,6 km/h (1 Bft)
05.09.2017 04:00 12,5 C 98 % 1019,1 hPa 0,2 l/m SW 0,00 h 0 W/m 5,3 km/h (1 Bft)
05.09.2017 05:00 12,4 C 98 % 1019,0 hPa 0,0 l/m SW 0,00 h 0 W/m 3,1 km/h (1 Bft)
05.09.2017 06:00 12,4 C 99 % 1018,9 hPa 0,0 l/m SW 0,00 h 0 W/m 5,1 km/h (1 Bft)
05.09.2017 07:00 12,4 C 99 % 1019,0 hPa 0,0 l/m SW 0,00 h 27 W/m 2,4 km/h (1 Bft)
05.09.2017 08:00 12,8 C 98 % 1019,1 hPa 0,0 l/m SW 0,00 h 67 W/m 1,6 km/h (1 Bft)
05.09.2017 09:00 13,4 C 97 % 1019,4 hPa 0,0 l/m SW 0,00 h 95 W/m 1,9 km/h (1 Bft)
05.09.2017 10:00 14,4 C 95 % 1019,4 hPa 0,0 l/m SW 0,00 h 187 W/m 4,9 km/h (1 Bft)
05.09.2017 11:00 16,5 C 90 % 1019,3 hPa 0,0 l/m SW 0,50 h 476 W/m 11,1 km/h (2 Bft)
05.09.2017 12:00 18,5 C 83 % 1018,9 hPa 0,0 l/m SW 0,58 h 522 W/m 12,5 km/h (3 Bft)
05.09.2017 13:00 20,5 C 79 % 1018,2 hPa 0,0 l/m S-SW 0,75 h 590 W/m 12,0 km/h (2 Bft)
05.09.2017 14:00 21,6 C 73 % 1017,6 hPa 0,0 l/m SW 0,50 h 441 W/m 15,0 km/h (3 Bft)
05.09.2017 15:00 22,2 C 71 % 1017,0 hPa 0,0 l/m SW 0,42 h 438 W/m 14,2 km/h (3 Bft)
05.09.2017 16:00 22,7 C 70 % 1016,9 hPa 0,0 l/m W-SW 0,83 h 511 W/m 12,9 km/h (3 Bft)
05.09.2017 17:00 21,8 C 70 % 1016,9 hPa 0,0 l/m W-SW 0,33 h 214 W/m 9,3 km/h (2 Bft)
05.09.2017 18:00 20,7 C 77 % 1016,7 hPa 0,0 l/m W-SW 0,08 h 61 W/m 2,3 km/h (1 Bft)
05.09.2017 19:00 19,2 C 84 % 1016,6 hPa 0,0 l/m N 0,00 h 11 W/m 0,0 km/h (0 Bft)
05.09.2017 20:00 18,3 C 89 % 1016,8 hPa 0,0 l/m N 0,00 h 0 W/m 0,0 km/h (0 Bft)
05.09.2017 21:00 17,1 C 92 % 1017,2 hPa 0,0 l/m N 0,00 h 0 W/m 0,0 km/h (0 Bft)
05.09.2017 22:00 16,9 C 93 % 1017,2 hPa 0,0 l/m N 0,00 h 0 W/m 0,0 km/h (0 Bft)
05.09.2017 23:00 16,6 C 94 % 1017,0 hPa 0,0 l/m W-SW 0,00 h 0 W/m 2,3 km/h (1 Bft)
06.09.2017 00:00 17,0 C 89 % 1016,8 hPa 0,0 l/m W-SW 0,00 h 0 W/m 1,5 km/h (1 Bft)
06.09.2017 01:00 16,6 C 89 % 1016,7 hPa 0,0 l/m N 0,00 h 0 W/m 0,0 km/h (0 Bft)
06.09.2017 02:00 16,1 C 92 % 1016,4 hPa 0,0 l/m W-SW 0,00 h 0 W/m 3,1 km/h (1 Bft)
06.09.2017 03:00 16,4 C 90 % 1016,0 hPa 0,0 l/m W-SW 0,00 h 0 W/m 2,5 km/h (1 Bft)
06.09.2017 04:00 16,4 C 91 % 1015,8 hPa 0,0 l/m N 0,00 h 0 W/m 1,1 km/h (0 Bft)
06.09.2017 05:00 16,5 C 91 % 1015,4 hPa 0,0 l/m W-SW 0,00 h 0 W/m 2,8 km/h (1 Bft)
06.09.2017 06:00 16,7 C 91 % 1015,3 hPa 0,0 l/m W-SW 0,00 h 5 W/m 12,5 km/h (3 Bft)
06.09.2017 07:00 16,2 C 95 % 1015,6 hPa 0,0 l/m SW 0,00 h 23 W/m 12,5 km/h (3 Bft)
06.09.2017 08:00 16,5 C 96 % 1015,8 hPa 0,0 l/m SW 0,00 h 75 W/m 8,4 km/h (2 Bft)
06.09.2017 09:00 17,5 C 92 % 1015,7 hPa 0,0 l/m W 0,00 h 145 W/m 9,4 km/h (2 Bft)
06.09.2017 10:00 18,3 C 87 % 1015,5 hPa 0,0 l/m W 0,00 h 189 W/m 10,6 km/h (2 Bft)
06.09.2017 11:00 18,9 C 83 % 1015,0 hPa 0,0 l/m W-NW 0,00 h 161 W/m 11,8 km/h (2 Bft)
06.09.2017 12:00 18,8 C 85 % 1014,9 hPa 0,0 l/m W 0,50 h 494 W/m 13,2 km/h (3 Bft)
06.09.2017 13:00 20,7 C 69 % 1014,6 hPa 0,0 l/m W 0,58 h 559 W/m 24,0 km/h (4 Bft)
06.09.2017 14:00 20,7 C 64 % 1014,5 hPa 0,0 l/m W-NW 0,25 h 306 W/m 20,6 km/h (4 Bft)
06.09.2017 15:00 20,9 C 62 % 1014,3 hPa 0,0 l/m W 0,08 h 288 W/m 18,2 km/h (3 Bft)
06.09.2017 16:00 20,6 C 65 % 1014,1 hPa 0,0 l/m W-NW 0,25 h 280 W/m 13,0 km/h (3 Bft)
06.09.2017 17:00 20,4 C 66 % 1013,9 hPa 0,0 l/m W-NW 0,25 h 178 W/m 16,9 km/h (3 Bft)
06.09.2017 18:00 18,2 C 74 % 1014,5 hPa 0,0 l/m W-NW 0,17 h 66 W/m 19,7 km/h (3 Bft)
06.09.2017 19:00 16,1 C 77 % 1015,3 hPa 0,0 l/m NW 0,25 h 23 W/m 13,2 km/h (3 Bft)
06.09.2017 20:00 15,0 C 77 % 1016,0 hPa 0,0 l/m W-NW 0,00 h 0 W/m 8,4 km/h (2 Bft)
06.09.2017 21:00 14,4 C 80 % 1016,6 hPa 0,0 l/m W-NW 0,00 h 0 W/m 4,0 km/h (1 Bft)
06.09.2017 22:00 13,7 C 82 % 1016,7 hPa 0,0 l/m W-NW 0,00 h 0 W/m 0,8 km/h (0 Bft)
06.09.2017 23:00 13,1 C 83 % 1017,0 hPa 0,0 l/m W-NW 0,00 h 0 W/m 8,0 km/h (2 Bft)
07.09.2017 00:00 13,0 C 82 % 1017,2 hPa 0,0 l/m W 0,00 h 0 W/m 9,1 km/h (2 Bft)
07.09.2017 01:00 12,7 C 80 % 1017,3 hPa 0,0 l/m W 0,00 h 0 W/m 12,0 km/h (2 Bft)
07.09.2017 02:00 12,3 C 81 % 1017,1 hPa 0,0 l/m W-SW 0,00 h 0 W/m 11,0 km/h (2 Bft)
07.09.2017 03:00 12,3 C 81 % 1016,7 hPa 0,0 l/m W 0,00 h 0 W/m 11,1 km/h (2 Bft)
07.09.2017 04:00 12,2 C 82 % 1016,4 hPa 0,0 l/m W 0,00 h 0 W/m 4,5 km/h (1 Bft)
07.09.2017 05:00 12,2 C 84 % 1016,1 hPa 0,0 l/m N 0,00 h 0 W/m 0,7 km/h (0 Bft)
07.09.2017 06:00 12,0 C 86 % 1015,9 hPa 0,0 l/m W 0,00 h 5 W/m 3,3 km/h (1 Bft)
07.09.2017 07:00 12,2 C 87 % 1015,9 hPa 0,0 l/m W 0,00 h 23 W/m 2,1 km/h (1 Bft)
07.09.2017 08:00 12,6 C 87 % 1016,1 hPa 0,0 l/m W 0,00 h 98 W/m 1,2 km/h (1 Bft)
07.09.2017 09:00 13,5 C 84 % 1016,3 hPa 0,0 l/m W 0,00 h 169 W/m 6,8 km/h (2 Bft)
07.09.2017 10:00 14,4 C 79 % 1016,4 hPa 0,0 l/m W-NW 0,25 h 293 W/m 8,3 km/h (2 Bft)
07.09.2017 11:00 14,8 C 76 % 1016,3 hPa 0,0 l/m W-NW 0,00 h 277 W/m 9,9 km/h (2 Bft)
07.09.2017 12:00 15,4 C 73 % 1016,0 hPa 0,0 l/m W 0,25 h 351 W/m 12,4 km/h (3 Bft)
07.09.2017 13:00 15,4 C 75 % 1015,7 hPa 0,0 l/m W-SW 0,00 h 247 W/m 12,0 km/h (2 Bft)
07.09.2017 14:00 15,8 C 74 % 1015,5 hPa 0,0 l/m W 0,33 h 367 W/m 13,8 km/h (3 Bft)
07.09.2017 15:00 16,5 C 70 % 1014,9 hPa 0,0 l/m W 0,67 h 368 W/m 14,4 km/h (3 Bft)
07.09.2017 16:00 16,7 C 69 % 1014,5 hPa 0,0 l/m W-SW 0,75 h 372 W/m 9,9 km/h (2 Bft)
07.09.2017 17:00 17,0 C 66 % 1014,1 hPa 0,0 l/m W 0,92 h 281 W/m 8,3 km/h (2 Bft)
07.09.2017 18:00 16,5 C 70 % 1013,9 hPa 0,0 l/m W 0,42 h 112 W/m 2,7 km/h (1 Bft)
07.09.2017 19:00 14,6 C 80 % 1014,2 hPa 0,0 l/m N 0,08 h 20 W/m 0,0 km/h (0 Bft)
07.09.2017 20:00 12,4 C 89 % 1014,5 hPa 0,0 l/m N 0,00 h 0 W/m 0,0 km/h (0 Bft)
07.09.2017 21:00 12,1 C 91 % 1014,9 hPa 0,0 l/m N 0,00 h 0 W/m 0,0 km/h (0 Bft)
07.09.2017 22:00 11,4 C 93 % 1015,0 hPa 0,0 l/m N 0,00 h 0 W/m 0,0 km/h (0 Bft)
07.09.2017 23:00 11,4 C 94 % 1014,8 hPa 0,0 l/m N 0,00 h 0 W/m 0,0 km/h (0 Bft)
08.09.2017 00:00 10,2 C 95 % 1014,2 hPa 0,0 l/m N 0,00 h 0 W/m 0,0 km/h (0 Bft)
08.09.2017 01:00 9,4 C 96 % 1013,9 hPa 0,0 l/m N 0,00 h 0 W/m 0,0 km/h (0 Bft)
08.09.2017 02:00 8,8 C 97 % 1013,7 hPa 0,0 l/m N 0,00 h 0 W/m 0,0 km/h (0 Bft)
08.09.2017 03:00 8,3 C 97 % 1013,3 hPa 0,0 l/m N 0,00 h 0 W/m 0,0 km/h (0 Bft)
08.09.2017 04:00 8,1 C 97 % 1013,0 hPa 0,0 l/m N 0,00 h 0 W/m 0,0 km/h (0 Bft)
08.09.2017 05:00 7,8 C 98 % 1012,7 hPa 0,0 l/m N 0,00 h 0 W/m 0,0 km/h (0 Bft)
08.09.2017 06:00 8,7 C 98 % 1012,5 hPa 0,0 l/m N 0,00 h 5 W/m 0,0 km/h (0 Bft)
08.09.2017 07:00 9,9 C 98 % 1012,4 hPa 0,0 l/m W 0,00 h 27 W/m 4,9 km/h (1 Bft)
08.09.2017 08:00 10,7 C 98 % 1012,5 hPa 0,0 l/m W 0,00 h 90 W/m 4,5 km/h (1 Bft)
08.09.2017 09:00 12,5 C 93 % 1012,4 hPa 0,0 l/m W 0,42 h 237 W/m 9,1 km/h (2 Bft)
08.09.2017 10:00 14,8 C 82 % 1012,2 hPa 0,0 l/m W-SW 0,83 h 479 W/m 13,3 km/h (3 Bft)
08.09.2017 11:00 15,9 C 71 % 1011,6 hPa 0,0 l/m W-SW 0,58 h 442 W/m 20,0 km/h (4 Bft)
08.09.2017 12:00 17,1 C 64 % 1010,6 hPa 0,0 l/m W-SW 1,00 h 727 W/m 24,7 km/h (4 Bft)
08.09.2017 13:00 17,7 C 63 % 1010,1 hPa 0,0 l/m SW 1,00 h 627 W/m 21,4 km/h (4 Bft)
08.09.2017 14:00 18,2 C 63 % 1009,4 hPa 0,0 l/m W-SW 1,00 h 616 W/m 17,3 km/h (3 Bft)
08.09.2017 15:00 18,4 C 63 % 1008,7 hPa 0,0 l/m W 1,00 h 468 W/m 11,2 km/h (2 Bft)
08.09.2017 16:00 18,1 C 63 % 1007,9 hPa 0,0 l/m W-SW 1,00 h 344 W/m 12,4 km/h (3 Bft)
08.09.2017 17:00 17,9 C 65 % 1007,1 hPa 0,0 l/m W-SW 1,00 h 247 W/m 11,8 km/h (2 Bft)
08.09.2017 18:00 17,0 C 68 % 1006,7 hPa 0,0 l/m W-SW 0,08 h 103 W/m 9,5 km/h (2 Bft)
08.09.2017 19:00 15,4 C 76 % 1006,4 hPa 0,0 l/m W-SW 0,00 h 25 W/m 4,9 km/h (1 Bft)
08.09.2017 20:00 13,7 C 82 % 1006,1 hPa 0,0 l/m N 0,00 h 0 W/m 0,8 km/h (0 Bft)
08.09.2017 21:00 12,1 C 89 % 1006,2 hPa 0,0 l/m N 0,00 h 0 W/m 0,0 km/h (0 Bft)
08.09.2017 22:00 11,3 C 92 % 1005,9 hPa 0,0 l/m N 0,00 h 0 W/m 0,0 km/h (0 Bft)
08.09.2017 23:00 10,6 C 94 % 1005,1 hPa 0,0 l/m N 0,00 h 0 W/m 0,0 km/h (0 Bft)
09.09.2017 00:00 10,3 C 95 % 1004,6 hPa 0,0 l/m N 0,00 h 0 W/m 0,0 km/h (0 Bft)
09.09.2017 01:00 9,5 C 96 % 1003,8 hPa 0,0 l/m N 0,00 h 0 W/m 0,0 km/h (0 Bft)
09.09.2017 02:00 9,1 C 96 % 1002,8 hPa 0,0 l/m N 0,00 h 0 W/m 0,0 km/h (0 Bft)
09.09.2017 03:00 8,6 C 97 % 1001,9 hPa 0,0 l/m N 0,00 h 0 W/m 0,0 km/h (0 Bft)
09.09.2017 04:00 8,5 C 97 % 1001,1 hPa 0,0 l/m N 0,00 h 0 W/m 0,0 km/h (0 Bft)
09.09.2017 05:00 8,2 C 97 % 1000,6 hPa 0,0 l/m N 0,00 h 0 W/m 0,0 km/h (0 Bft)
09.09.2017 06:00 8,3 C 98 % 1000,4 hPa 0,0 l/m N 0,00 h 5 W/m 0,0 km/h (0 Bft)
09.09.2017 07:00 8,2 C 98 % 1000,5 hPa 0,0 l/m N 0,25 h 50 W/m 0,0 km/h (0 Bft)
09.09.2017 08:00 10,0 C 98 % 1000,5 hPa 0,0 l/m N 0,58 h 132 W/m 0,0 km/h (0 Bft)
09.09.2017 09:00 12,1 C 97 % 1000,9 hPa 0,0 l/m SW 0,00 h 24 W/m 11,0 km/h (2 Bft)
09.09.2017 10:00 12,8 C 94 % 1001,5 hPa 0,0 l/m SW 0,00 h 56 W/m 15,2 km/h (3 Bft)
09.09.2017 11:00 13,3 C 88 % 1001,7 hPa 0,0 l/m SW 0,00 h 43 W/m 12,9 km/h (3 Bft)
09.09.2017 12:00 13,2 C 87 % 1001,5 hPa 0,0 l/m SW 0,00 h 71 W/m 16,1 km/h (3 Bft)
09.09.2017 13:00 13,1 C 87 % 1001,5 hPa 0,2 l/m SW 0,00 h 73 W/m 13,4 km/h (3 Bft)
09.09.2017 14:00 12,8 C 92 % 1001,6 hPa 0,6 l/m W-SW 0,00 h 118 W/m 14,4 km/h (3 Bft)
09.09.2017 15:00 12,7 C 94 % 1001,6 hPa 1,0 l/m SW 0,00 h 115 W/m 15,0 km/h (3 Bft)
09.09.2017 16:00 12,8 C 95 % 1001,7 hPa 0,4 l/m SW 0,00 h 101 W/m 15,4 km/h (3 Bft)
09.09.2017 17:00 12,7 C 96 % 1002,0 hPa 0,8 l/m SW 0,00 h 67 W/m 16,6 km/h (3 Bft)
09.09.2017 18:00 12,5 C 97 % 1002,0 hPa 1,2 l/m SW 0,00 h 25 W/m 16,8 km/h (3 Bft)
09.09.2017 19:00 12,0 C 97 % 1002,3 hPa 2,6 l/m SW 0,00 h 7 W/m 17,0 km/h (3 Bft)
09.09.2017 20:00 11,4 C 97 % 1002,8 hPa 1,0 l/m SW 0,00 h 0 W/m 15,4 km/h (3 Bft)
09.09.2017 21:00 11,1 C 97 % 1003,3 hPa 0,8 l/m SW 0,00 h 0 W/m 16,2 km/h (3 Bft)
09.09.2017 22:00 10,8 C 97 % 1003,4 hPa 0,6 l/m SW 0,00 h 0 W/m 12,9 km/h (3 Bft)
09.09.2017 23:00 10,6 C 98 % 1003,4 hPa 0,6 l/m SW 0,00 h 0 W/m 14,2 km/h (3 Bft)
10.09.2017 00:00 10,7 C 98 % 1002,9 hPa 0,0 l/m S-SW 0,00 h 0 W/m 14,0 km/h (3 Bft)
10.09.2017 01:00 10,6 C 98 % 1003,1 hPa 0,0 l/m SW 0,00 h 0 W/m 9,4 km/h (2 Bft)
10.09.2017 02:00 10,4 C 98 % 1003,2 hPa 0,2 l/m SW 0,00 h 0 W/m 9,8 km/h (2 Bft)
10.09.2017 03:00 10,1 C 98 % 1003,5 hPa 0,2 l/m S-SW 0,00 h 0 W/m 12,3 km/h (3 Bft)
10.09.2017 04:00 9,9 C 98 % 1004,0 hPa 0,4 l/m SW 0,00 h 0 W/m 14,4 km/h (3 Bft)
10.09.2017 05:00 9,7 C 98 % 1004,2 hPa 0,4 l/m SW 0,00 h 0 W/m 11,3 km/h (2 Bft)
10.09.2017 06:00 9,7 C 98 % 1004,7 hPa 0,4 l/m S-SW 0,00 h 0 W/m 10,6 km/h (2 Bft)
10.09.2017 07:00 9,4 C 98 % 1005,2 hPa 0,2 l/m S-SW 0,00 h 10 W/m 9,7 km/h (2 Bft)
10.09.2017 08:00 9,3 C 98 % 1005,9 hPa 0,2 l/m S-SW 0,00 h 36 W/m 10,7 km/h (2 Bft)
10.09.2017 09:00 9,2 C 98 % 1006,3 hPa 0,2 l/m S-SW 0,00 h 72 W/m 14,5 km/h (3 Bft)
10.09.2017 10:00 9,5 C 98 % 1006,7 hPa 0,0 l/m SW 0,00 h 151 W/m 14,6 km/h (3 Bft)
10.09.2017 11:00 10,1 C 96 % 1007,0 hPa 0,0 l/m SW 0,00 h 231 W/m 15,0 km/h (3 Bft)
10.09.2017 12:00 11,7 C 93 % 1006,8 hPa 0,0 l/m SW 0,75 h 556 W/m 13,2 km/h (3 Bft)
10.09.2017 13:00 13,0 C 87 % 1006,4 hPa 0,0 l/m SW 0,58 h 420 W/m 10,6 km/h (2 Bft)
10.09.2017 14:00 14,2 C 82 % 1006,3 hPa 0,0 l/m W-SW 1,00 h 458 W/m 8,3 km/h (2 Bft)
10.09.2017 15:00 15,3 C 77 % 1006,1 hPa 0,0 l/m W-SW 0,83 h 576 W/m 8,0 km/h (2 Bft)
10.09.2017 16:00 16,4 C 70 % 1005,7 hPa 0,0 l/m SW 0,83 h 429 W/m 7,6 km/h (2 Bft)
10.09.2017 17:00 16,0 C 71 % 1005,7 hPa 0,0 l/m SW 0,75 h 272 W/m 5,6 km/h (1 Bft)
10.09.2017 18:00 15,5 C 74 % 1005,5 hPa 0,0 l/m SW 0,42 h 120 W/m 7,0 km/h (2 Bft)
10.09.2017 19:00 13,3 C 83 % 1005,5 hPa 0,0 l/m SW 0,00 h 16 W/m 3,5 km/h (1 Bft)
10.09.2017 20:00 11,8 C 89 % 1006,0 hPa 0,0 l/m SW 0,00 h 0 W/m 3,6 km/h (1 Bft)
10.09.2017 21:00 11,2 C 89 % 1006,1 hPa 0,0 l/m SW 0,00 h 0 W/m 3,2 km/h (1 Bft)
10.09.2017 22:00 10,6 C 91 % 1005,9 hPa 0,0 l/m N 0,00 h 0 W/m 0,0 km/h (0 Bft)
10.09.2017 23:00 10,3 C 92 % 1005,5 hPa 0,0 l/m N 0,00 h 0 W/m 0,0 km/h (0 Bft)
Min-Datum _ 04.09.17 04.09.17 09.09.17 - - - - 04.09.17
_ Min-Zeit 06:45 14:35 06:15 - - - - 00:00
Minimum _ 5,4 C 57 % 1000,1 hPa - - - - 0,0 km/h (0 Bft)
Max-Datum _ 05.09.17 04.09.17 05.09.17 09.09.17 - 04.09.17 04.09.17 06.09.17
_ Max-Zeit 16:55 07:25 01:55 19:10 - 06:55 12:50 13:20
Maximum _ 23,3 C 99 % 1019,7 hPa 2,6 l/m - 0,08 h 983 W/m 32,2 km/h
W-NW (5 Bft)
Durchschnitt _ 13,7 C 87 % 1011,8 hPa #13,4 l/m SW #31:20 h 233 W/m 7,0 km/h (2 Bft)